sensor_id;sensor_type;location;lat;lon;timestamp;pressure;altitude;pressure_sealevel;temperature;humidity
34124;BME280;13153;52.316;21.166;2023-01-29T00:00:08;101284.63;;;4.98;52.71
34124;BME280;13153;52.316;21.166;2023-01-29T00:02:38;101282.13;;;5.00;52.97
34124;BME280;13153;52.316;21.166;2023-01-29T00:05:05;101291.66;;;4.99;53.01
34124;BME280;13153;52.316;21.166;2023-01-29T00:07:31;101284.44;;;4.95;53.25
34124;BME280;13153;52.316;21.166;2023-01-29T00:09:57;101281.03;;;4.96;53.21
34124;BME280;13153;52.316;21.166;2023-01-29T00:12:23;101270.69;;;4.97;53.24
34124;BME280;13153;52.316;21.166;2023-01-29T00:14:49;101273.31;;;4.97;53.10
34124;BME280;13153;52.316;21.166;2023-01-29T00:17:15;101261.97;;;4.97;53.07
34124;BME280;13153;52.316;21.166;2023-01-29T00:19:40;101266.38;;;4.98;53.41
34124;BME280;13153;52.316;21.166;2023-01-29T00:22:06;101247.13;;;4.96;53.03
34124;BME280;13153;52.316;21.166;2023-01-29T00:24:32;101246.94;;;4.93;52.80
34124;BME280;13153;52.316;21.166;2023-01-29T00:26:58;101254.75;;;4.93;52.74
34124;BME280;13153;52.316;21.166;2023-01-29T00:29:23;101250.34;;;4.92;51.92
34124;BME280;13153;52.316;21.166;2023-01-29T00:31:49;101247.75;;;4.92;52.43
34124;BME280;13153;52.316;21.166;2023-01-29T00:34:15;101240.91;;;4.94;52.63
34124;BME280;13153;52.316;21.166;2023-01-29T00:36:41;101245.03;;;4.90;53.15
34124;BME280;13153;52.316;21.166;2023-01-29T00:39:08;101246.84;;;4.91;53.13
34124;BME280;13153;52.316;21.166;2023-01-29T00:41:37;101248.63;;;4.92;52.76
34124;BME280;13153;52.316;21.166;2023-01-29T00:44:22;101242.63;;;4.93;53.23
34124;BME280;13153;52.316;21.166;2023-01-29T00:47:06;101245.13;;;4.92;53.20
34124;BME280;13153;52.316;21.166;2023-01-29T00:49:50;101237.31;;;4.92;52.71
34124;BME280;13153;52.316;21.166;2023-01-29T00:52:16;101238.91;;;4.90;52.50
34124;BME280;13153;52.316;21.166;2023-01-29T00:54:56;101232.91;;;4.91;53.05
34124;BME280;13153;52.316;21.166;2023-01-29T00:57:26;101229.38;;;4.90;52.55
34124;BME280;13153;52.316;21.166;2023-01-29T00:59:52;101216.97;;;4.86;53.18
34124;BME280;13153;52.316;21.166;2023-01-29T01:02:18;101213.34;;;4.84;52.71
34124;BME280;13153;52.316;21.166;2023-01-29T01:05:04;101219.28;;;4.82;52.18
34124;BME280;13153;52.316;21.166;2023-01-29T01:07:41;101212.06;;;4.78;52.35
34124;BME280;13153;52.316;21.166;2023-01-29T01:10:12;101212.25;;;4.81;52.57
34124;BME280;13153;52.316;21.166;2023-01-29T01:13:00;101200.13;;;4.81;52.78
34124;BME280;13153;52.316;21.166;2023-01-29T01:15:30;101194.13;;;4.82;52.79
34124;BME280;13153;52.316;21.166;2023-01-29T01:18:00;101191.31;;;4.79;52.06
34124;BME280;13153;52.316;21.166;2023-01-29T01:20:30;101183.50;;;4.79;52.51
34124;BME280;13153;52.316;21.166;2023-01-29T01:22:57;101186.09;;;4.79;53.13
34124;BME280;13153;52.316;21.166;2023-01-29T01:25:25;101191.94;;;4.75;52.21
34124;BME280;13153;52.316;21.166;2023-01-29T01:27:56;101189.31;;;4.75;52.22
34124;BME280;13153;52.316;21.166;2023-01-29T01:30:24;101182.59;;;4.79;52.20
34124;BME280;13153;52.316;21.166;2023-01-29T01:32:50;101177.47;;;4.80;52.14
34124;BME280;13153;52.316;21.166;2023-01-29T01:35:16;101182.69;;;4.80;51.67
34124;BME280;13153;52.316;21.166;2023-01-29T01:37:42;101188.09;;;4.83;51.61
34124;BME280;13153;52.316;21.166;2023-01-29T01:40:16;101185.69;;;4.86;51.52
34124;BME280;13153;52.316;21.166;2023-01-29T01:42:53;101181.34;;;4.87;51.62
34124;BME280;13153;52.316;21.166;2023-01-29T01:45:40;101184.78;;;4.86;52.30
34124;BME280;13153;52.316;21.166;2023-01-29T01:50:49;101187.19;;;4.83;51.75
34124;BME280;13153;52.316;21.166;2023-01-29T01:53:33;101189.78;;;4.83;52.29
34124;BME280;13153;52.316;21.166;2023-01-29T01:56:10;101185.38;;;4.82;52.53
34124;BME280;13153;52.316;21.166;2023-01-29T01:58:44;101186.38;;;4.84;52.23
34124;BME280;13153;52.316;21.166;2023-01-29T04:46:56;101086.38;;;4.69;52.03
34124;BME280;13153;52.316;21.166;2023-01-29T04:50:01;101082.69;;;4.65;52.05
34124;BME280;13153;52.316;21.166;2023-01-29T05:25:39;101076.22;;;4.58;52.61
34124;BME280;13153;52.316;21.166;2023-01-29T05:28:05;101065.16;;;4.62;52.85
34124;BME280;13153;52.316;21.166;2023-01-29T05:30:49;101068.84;;;4.66;52.57
34124;BME280;13153;52.316;21.166;2023-01-29T05:33:28;101065.34;;;4.65;52.33
34124;BME280;13153;52.316;21.166;2023-01-29T05:35:57;101056.09;;;4.71;52.27
34124;BME280;13153;52.316;21.166;2023-01-29T05:38:23;101051.69;;;4.70;52.37
34124;BME280;13153;52.316;21.166;2023-01-29T05:40:49;101050.88;;;4.71;52.52
34124;BME280;13153;52.316;21.166;2023-01-29T05:43:21;101048.19;;;4.69;52.45
34124;BME280;13153;52.316;21.166;2023-01-29T05:46:00;101052.78;;;4.73;52.49
34124;BME280;13153;52.316;21.166;2023-01-29T05:48:27;101045.94;;;4.75;52.21
34124;BME280;13153;52.316;21.166;2023-01-29T05:50:59;101052.16;;;4.77;51.91
34124;BME280;13153;52.316;21.166;2023-01-29T05:53:25;101039.03;;;4.76;51.79
34124;BME280;13153;52.316;21.166;2023-01-29T05:55:51;101042.53;;;4.76;52.09
34124;BME280;13153;52.316;21.166;2023-01-29T05:58:17;101038.03;;;4.74;52.17
34124;BME280;13153;52.316;21.166;2023-01-29T06:00:44;101044.16;;;4.74;52.35
34124;BME280;13153;52.316;21.166;2023-01-29T06:03:10;101040.53;;;4.72;52.22
34124;BME280;13153;52.316;21.166;2023-01-29T06:05:39;101051.88;;;4.73;52.11
34124;BME280;13153;52.316;21.166;2023-01-29T06:08:06;101049.78;;;4.67;52.46
34124;BME280;13153;52.316;21.166;2023-01-29T06:10:32;101047.91;;;4.64;52.29
34124;BME280;13153;52.316;21.166;2023-01-29T06:12:58;101054.91;;;4.65;52.15
34124;BME280;13153;52.316;21.166;2023-01-29T06:15:24;101047.28;;;4.69;52.20
34124;BME280;13153;52.316;21.166;2023-01-29T06:17:53;101044.84;;;4.72;52.46
34124;BME280;13153;52.316;21.166;2023-01-29T06:20:19;101054.38;;;4.71;51.93
34124;BME280;13153;52.316;21.166;2023-01-29T06:22:45;101055.47;;;4.75;52.17
34124;BME280;13153;52.316;21.166;2023-01-29T06:25:11;101058.16;;;4.76;52.54
34124;BME280;13153;52.316;21.166;2023-01-29T06:27:37;101058.97;;;4.75;52.04
34124;BME280;13153;52.316;21.166;2023-01-29T06:30:05;101061.69;;;4.77;52.31
34124;BME280;13153;52.316;21.166;2023-01-29T06:32:31;101052.25;;;4.79;52.37
34124;BME280;13153;52.316;21.166;2023-01-29T06:34:57;101050.63;;;4.81;52.52
34124;BME280;13153;52.316;21.166;2023-01-29T06:37:23;101048.13;;;4.82;52.17
34124;BME280;13153;52.316;21.166;2023-01-29T06:39:49;101058.72;;;4.85;52.00
34124;BME280;13153;52.316;21.166;2023-01-29T06:42:14;101053.41;;;4.84;52.36
34124;BME280;13153;52.316;21.166;2023-01-29T06:44:40;101050.63;;;4.81;52.13
34124;BME280;13153;52.316;21.166;2023-01-29T06:47:06;101040.28;;;4.82;51.90
34124;BME280;13153;52.316;21.166;2023-01-29T06:49:32;101048.13;;;4.82;52.04
34124;BME280;13153;52.316;21.166;2023-01-29T06:51:57;101051.06;;;4.74;52.00
34124;BME280;13153;52.316;21.166;2023-01-29T06:54:23;101047.91;;;4.64;52.20
34124;BME280;13153;52.316;21.166;2023-01-29T06:56:50;101060.22;;;4.67;52.41
34124;BME280;13153;52.316;21.166;2023-01-29T06:59:16;101062.47;;;4.76;52.21
34124;BME280;13153;52.316;21.166;2023-01-29T07:01:42;101055.66;;;4.78;52.12
34124;BME280;13153;52.316;21.166;2023-01-29T07:04:10;101054.94;;;4.80;52.46
34124;BME280;13153;52.316;21.166;2023-01-29T07:06:36;101048.13;;;4.82;51.63
34124;BME280;13153;52.316;21.166;2023-01-29T07:09:03;101039.66;;;4.86;52.14
34124;BME280;13153;52.316;21.166;2023-01-29T07:11:29;101026.53;;;4.85;51.95
34124;BME280;13153;52.316;21.166;2023-01-29T07:13:55;101021.50;;;4.88;51.39
34124;BME280;13153;52.316;21.166;2023-01-29T07:16:21;101021.69;;;4.91;51.36
34124;BME280;13153;52.316;21.166;2023-01-29T07:18:48;101023.50;;;4.92;51.58
34124;BME280;13153;52.316;21.166;2023-01-29T07:21:13;101029.25;;;4.86;51.70
34124;BME280;13153;52.316;21.166;2023-01-29T07:23:39;101028.53;;;4.89;51.44
34124;BME280;13153;52.316;21.166;2023-01-29T07:26:06;101032.31;;;4.94;51.60
34124;BME280;13153;52.316;21.166;2023-01-29T07:28:39;101034.09;;;4.95;51.37
34124;BME280;13153;52.316;21.166;2023-01-29T07:31:06;101037.88;;;5.00;51.83
34124;BME280;13153;52.316;21.166;2023-01-29T07:33:33;101043.28;;;5.03;51.57
34124;BME280;13153;52.316;21.166;2023-01-29T07:35:59;101049.31;;;5.02;51.53
34124;BME280;13153;52.316;21.166;2023-01-29T07:38:25;101057.22;;;5.04;51.47
34124;BME280;13153;52.316;21.166;2023-01-29T07:40:52;101048.75;;;5.08;51.34
34124;BME280;13153;52.316;21.166;2023-01-29T07:43:18;101046.88;;;5.05;51.89
34124;BME280;13153;52.316;21.166;2023-01-29T07:45:43;101056.13;;;5.00;51.71
34124;BME280;13153;52.316;21.166;2023-01-29T07:48:11;101045.97;;;5.05;51.22
34124;BME280;13153;52.316;21.166;2023-01-29T07:50:39;101048.94;;;5.11;51.39
34124;BME280;13153;52.316;21.166;2023-01-29T07:53:05;101037.06;;;5.16;51.58
34124;BME280;13153;52.316;21.166;2023-01-29T07:55:32;101037.16;;;5.17;51.14
34124;BME280;13153;52.316;21.166;2023-01-29T07:58:01;101026.88;;;5.20;50.94
34124;BME280;13153;52.316;21.166;2023-01-29T08:00:29;101028.97;;;5.11;51.43
34124;BME280;13153;52.316;21.166;2023-01-29T08:03:03;101033.47;;;5.14;51.67
34124;BME280;13153;52.316;21.166;2023-01-29T08:05:29;101035.47;;;5.18;51.36
34124;BME280;13153;52.316;21.166;2023-01-29T08:07:55;101036.44;;;5.20;51.13
34124;BME280;13153;52.316;21.166;2023-01-29T08:10:21;101029.47;;;5.20;51.20
34124;BME280;13153;52.316;21.166;2023-01-29T08:12:53;101034.66;;;5.19;51.12
34124;BME280;13153;52.316;21.166;2023-01-29T08:15:19;101021.59;;;5.19;51.28
34124;BME280;13153;52.316;21.166;2023-01-29T08:17:44;101023.53;;;5.23;51.13
34124;BME280;13153;52.316;21.166;2023-01-29T08:20:11;101014.19;;;5.26;51.24
34124;BME280;13153;52.316;21.166;2023-01-29T08:22:36;101007.25;;;5.27;51.22
34124;BME280;13153;52.316;21.166;2023-01-29T08:25:03;101015.19;;;5.28;50.97
34124;BME280;13153;52.316;21.166;2023-01-29T08:27:29;101000.50;;;5.30;50.87
34124;BME280;13153;52.316;21.166;2023-01-29T08:29:55;101009.97;;;5.28;51.06
34124;BME280;13153;52.316;21.166;2023-01-29T08:32:21;101014.97;;;5.40;50.97
34124;BME280;13153;52.316;21.166;2023-01-29T08:34:47;101025.78;;;5.46;50.76
34124;BME280;13153;52.316;21.166;2023-01-29T08:37:13;101031.53;;;5.41;50.58
34124;BME280;13153;52.316;21.166;2023-01-29T08:39:38;101025.69;;;5.45;50.60
34124;BME280;13153;52.316;21.166;2023-01-29T08:42:04;101021.44;;;5.47;50.58
34124;BME280;13153;52.316;21.166;2023-01-29T08:44:30;101021.28;;;5.44;50.44
34124;BME280;13153;52.316;21.166;2023-01-29T08:46:56;101012.03;;;5.34;50.94
34124;BME280;13153;52.316;21.166;2023-01-29T08:49:22;101006.53;;;5.29;50.99
34124;BME280;13153;52.316;21.166;2023-01-29T08:51:48;101004.75;;;5.28;51.05
34124;BME280;13153;52.316;21.166;2023-01-29T08:54:16;101007.44;;;5.30;51.28
34124;BME280;13153;52.316;21.166;2023-01-29T08:56:42;101001.84;;;5.39;51.08
34124;BME280;13153;52.316;21.166;2023-01-29T08:59:09;101001.84;;;5.39;51.06
34124;BME280;13153;52.316;21.166;2023-01-29T09:01:35;100992.84;;;5.48;50.86
34124;BME280;13153;52.316;21.166;2023-01-29T09:04:01;100989.59;;;5.52;51.11
34124;BME280;13153;52.316;21.166;2023-01-29T09:06:27;100987.97;;;5.54;50.95
34124;BME280;13153;52.316;21.166;2023-01-29T09:08:52;100989.13;;;5.59;50.55
34124;BME280;13153;52.316;21.166;2023-01-29T09:11:18;100990.00;;;5.60;50.78
34124;BME280;13153;52.316;21.166;2023-01-29T09:13:44;100975.81;;;5.55;50.81
34124;BME280;13153;52.316;21.166;2023-01-29T09:16:10;100975.53;;;5.50;50.95
34124;BME280;13153;52.316;21.166;2023-01-29T09:18:36;100978.69;;;5.59;51.18
34124;BME280;13153;52.316;21.166;2023-01-29T09:21:01;100972.31;;;5.54;51.85
34124;BME280;13153;52.316;21.166;2023-01-29T09:23:29;100967.81;;;5.52;52.80
34124;BME280;13153;52.316;21.166;2023-01-29T09:25:55;100974.00;;;5.54;54.25
34124;BME280;13153;52.316;21.166;2023-01-29T09:28:22;100968.50;;;5.64;56.57
34124;BME280;13153;52.316;21.166;2023-01-29T09:30:47;100974.78;;;5.68;55.51
34124;BME280;13153;52.316;21.166;2023-01-29T09:33:13;100972.81;;;5.80;56.03
34124;BME280;13153;52.316;21.166;2023-01-29T09:35:41;100975.41;;;5.94;55.44
34124;BME280;13153;52.316;21.166;2023-01-29T09:38:10;100961.78;;;6.00;54.28
34124;BME280;13153;52.316;21.166;2023-01-29T09:43:25;100967.34;;;6.06;53.29
34124;BME280;13153;52.316;21.166;2023-01-29T09:46:01;100954.50;;;6.11;53.04
34124;BME280;13153;52.316;21.166;2023-01-29T09:48:33;100951.50;;;6.19;52.72
34124;BME280;13153;52.316;21.166;2023-01-29T09:51:12;100950.94;;;6.25;52.27
34124;BME280;13153;52.316;21.166;2023-01-29T09:53:47;100940.78;;;6.31;52.68
34124;BME280;13153;52.316;21.166;2023-01-29T09:56:22;100941.25;;;6.40;52.11
34124;BME280;13153;52.316;21.166;2023-01-29T09:58:57;100944.91;;;6.44;52.09
34124;BME280;13153;52.316;21.166;2023-01-29T10:01:52;100943.53;;;6.50;51.96
34124;BME280;13153;52.316;21.166;2023-01-29T10:04:47;100946.13;;;6.50;52.15
34124;BME280;13153;52.316;21.166;2023-01-29T10:10:37;100937.53;;;6.35;52.59
34124;BME280;13153;52.316;21.166;2023-01-29T10:13:23;100922.72;;;6.36;52.55
34124;BME280;13153;52.316;21.166;2023-01-29T10:16:19;100934.53;;;6.45;52.36
34124;BME280;13153;52.316;21.166;2023-01-29T10:19:06;100923.09;;;6.43;52.43
34124;BME280;13153;52.316;21.166;2023-01-29T10:22:03;100915.63;;;6.33;52.70
34124;BME280;13153;52.316;21.166;2023-01-29T10:25:04;100927.06;;;6.35;54.02
34124;BME280;13153;52.316;21.166;2023-01-29T10:27:38;100915.72;;;6.35;53.78
34124;BME280;13153;52.316;21.166;2023-01-29T10:30:28;100918.66;;;6.24;53.58
34124;BME280;13153;52.316;21.166;2023-01-29T10:33:01;100910.19;;;6.28;54.02
34124;BME280;13153;52.316;21.166;2023-01-29T10:35:44;100918.00;;;6.28;53.12
34124;BME280;13153;52.316;21.166;2023-01-29T10:55:31;100901.34;;;6.26;53.18
34124;BME280;13153;52.316;21.166;2023-01-29T11:00:52;100908.56;;;6.14;53.34
34124;BME280;13153;52.316;21.166;2023-01-29T11:03:30;100898.03;;;6.13;53.72
34124;BME280;13153;52.316;21.166;2023-01-29T11:09:31;100896.31;;;6.13;53.78
34124;BME280;13153;52.316;21.166;2023-01-29T11:12:26;100891.47;;;6.21;53.33
34124;BME280;13153;52.316;21.166;2023-01-29T11:17:31;100871.91;;;6.13;53.69
34124;BME280;13153;52.316;21.166;2023-01-29T11:19:56;100864.47;;;6.04;53.71
34124;BME280;13153;52.316;21.166;2023-01-29T11:22:25;100862.94;;;6.08;54.18
34124;BME280;13153;52.316;21.166;2023-01-29T11:25:18;100851.91;;;6.13;54.35
34124;BME280;13153;52.316;21.166;2023-01-29T11:27:55;100840.53;;;6.13;54.30
34124;BME280;13153;52.316;21.166;2023-01-29T11:30:30;100836.69;;;6.22;53.85
34124;BME280;13153;52.316;21.166;2023-01-29T11:33:17;100842.00;;;6.24;54.10
34124;BME280;13153;52.316;21.166;2023-01-29T11:35:44;100827.81;;;6.19;53.99
34124;BME280;13153;52.316;21.166;2023-01-29T11:38:24;100816.53;;;6.20;53.83
34124;BME280;13153;52.316;21.166;2023-01-29T11:40:50;100817.75;;;6.26;54.12
34124;BME280;13153;52.316;21.166;2023-01-29T11:43:31;100810.28;;;6.34;53.95
34124;BME280;13153;52.316;21.166;2023-01-29T11:46:10;100813.25;;;6.42;53.81
34124;BME280;13153;52.316;21.166;2023-01-29T11:48:51;100800.09;;;6.40;53.39
34124;BME280;13153;52.316;21.166;2023-01-29T11:51:39;100809.66;;;6.40;53.69
34124;BME280;13153;52.316;21.166;2023-01-29T11:54:15;100809.91;;;6.44;53.54
34124;BME280;13153;52.316;21.166;2023-01-29T11:56:45;100803.69;;;6.42;53.59
34124;BME280;13153;52.316;21.166;2023-01-29T11:59:42;100796.00;;;6.45;53.34
34124;BME280;13153;52.316;21.166;2023-01-29T12:02:41;100789.38;;;6.34;53.55
34124;BME280;13153;52.316;21.166;2023-01-29T12:05:22;100787.13;;;6.24;53.58
34124;BME280;13153;52.316;21.166;2023-01-29T12:07:57;100784.75;;;6.28;54.02
34124;BME280;13153;52.316;21.166;2023-01-29T12:10:39;100782.28;;;6.32;53.62
34124;BME280;13153;52.316;21.166;2023-01-29T12:15:40;100769.50;;;6.38;53.57
34124;BME280;13153;52.316;21.166;2023-01-29T12:18:35;100766.59;;;6.32;54.01
34124;BME280;13153;52.316;21.166;2023-01-29T12:21:21;100764.59;;;6.26;54.10
34124;BME280;13153;52.316;21.166;2023-01-29T12:24:10;100766.75;;;6.17;54.14
34124;BME280;13153;52.316;21.166;2023-01-29T12:33:26;100749.03;;;6.11;54.89
34124;BME280;13153;52.316;21.166;2023-01-29T12:36:08;100758.97;;;6.18;54.83
34124;BME280;13153;52.316;21.166;2023-01-29T12:38:37;100749.13;;;6.13;54.59
34124;BME280;13153;52.316;21.166;2023-01-29T12:41:33;100740.66;;;6.01;55.09
34124;BME280;13153;52.316;21.166;2023-01-29T12:44:14;100740.91;;;6.05;55.19
34124;BME280;13153;52.316;21.166;2023-01-29T12:46:52;100738.44;;;6.08;55.21
34124;BME280;13153;52.316;21.166;2023-01-29T12:49:25;100740.22;;;6.09;55.45
34124;BME280;13153;52.316;21.166;2023-01-29T12:52:01;100724.63;;;6.11;55.10
34124;BME280;13153;52.316;21.166;2023-01-29T12:59:54;100722.91;;;6.11;55.07
34124;BME280;13153;52.316;21.166;2023-01-29T13:02:38;100730.69;;;6.10;54.94
34124;BME280;13153;52.316;21.166;2023-01-29T13:05:37;100734.50;;;6.16;55.27
34124;BME280;13153;52.316;21.166;2023-01-29T13:08:10;100733.13;;;6.07;55.18
34124;BME280;13153;52.316;21.166;2023-01-29T13:10:45;100743.59;;;6.07;55.53
34124;BME280;13153;52.316;21.166;2023-01-29T13:13:34;100739.09;;;6.04;55.34
34124;BME280;13153;52.316;21.166;2023-01-29T13:16:08;100746.03;;;6.04;55.86
34124;BME280;13153;52.316;21.166;2023-01-29T13:21:19;100735.75;;;6.07;55.94
34124;BME280;13153;52.316;21.166;2023-01-29T13:23:51;100741.63;;;6.03;55.87
34124;BME280;13153;52.316;21.166;2023-01-29T13:26:20;100730.31;;;5.86;56.72
34124;BME280;13153;52.316;21.166;2023-01-29T13:28:47;100731.19;;;5.86;57.06
34124;BME280;13153;52.316;21.166;2023-01-29T13:31:36;100734.41;;;5.81;57.71
34124;BME280;13153;52.316;21.166;2023-01-29T13:34:15;100739.41;;;5.76;58.08
34124;BME280;13153;52.316;21.166;2023-01-29T13:36:48;100735.22;;;5.80;58.46
34124;BME280;13153;52.316;21.166;2023-01-29T13:39:29;100729.16;;;5.81;58.41
34124;BME280;13153;52.316;21.166;2023-01-29T13:41:59;100728.81;;;5.73;58.96
34124;BME280;13153;52.316;21.166;2023-01-29T13:44:28;100706.28;;;5.75;59.05
34124;BME280;13153;52.316;21.166;2023-01-29T13:47:01;100703.88;;;5.80;58.63
34124;BME280;13153;52.316;21.166;2023-01-29T13:49:37;100686.88;;;5.88;58.61
34124;BME280;13153;52.316;21.166;2023-01-29T13:52:35;100709.16;;;5.97;58.42
34124;BME280;13153;52.316;21.166;2023-01-29T13:55:18;100706.56;;;5.97;57.52
34124;BME280;13153;52.316;21.166;2023-01-29T14:02:47;100711.34;;;6.06;57.45
34124;BME280;13153;52.316;21.166;2023-01-29T14:10:42;100718.28;;;6.06;57.29
34124;BME280;13153;52.316;21.166;2023-01-29T14:21:28;100744.09;;;5.83;58.37
34124;BME280;13153;52.316;21.166;2023-01-29T14:24:19;100738.22;;;5.87;58.24
34124;BME280;13153;52.316;21.166;2023-01-29T14:26:48;100742.06;;;5.78;58.45
34124;BME280;13153;52.316;21.166;2023-01-29T14:29:30;100733.06;;;5.71;58.94
34124;BME280;13153;52.316;21.166;2023-01-29T14:32:17;100731.34;;;5.72;58.87
34124;BME280;13153;52.316;21.166;2023-01-29T14:35:17;100726.28;;;5.75;58.91
34124;BME280;13153;52.316;21.166;2023-01-29T14:37:48;100723.59;;;5.73;58.96
34124;BME280;13153;52.316;21.166;2023-01-29T14:40:23;100703.88;;;5.80;58.82
34124;BME280;13153;52.316;21.166;2023-01-29T14:43:06;100691.72;;;5.80;58.66
34124;BME280;13153;52.316;21.166;2023-01-29T14:45:35;100686.66;;;5.83;58.97
34124;BME280;13153;52.316;21.166;2023-01-29T14:48:02;100684.13;;;5.85;58.77
34124;BME280;13153;52.316;21.166;2023-01-29T14:58:03;100702.47;;;5.86;58.46
34124;BME280;13153;52.316;21.166;2023-01-29T15:00:36;100705.97;;;5.87;58.69
34124;BME280;13153;52.316;21.166;2023-01-29T15:03:23;100705.81;;;5.84;58.84
34124;BME280;13153;52.316;21.166;2023-01-29T15:05:53;100707.69;;;5.86;58.67
34124;BME280;13153;52.316;21.166;2023-01-29T15:08:42;100698.22;;;5.88;59.01
34124;BME280;13153;52.316;21.166;2023-01-29T15:11:26;100689.41;;;5.86;58.96
34124;BME280;13153;52.316;21.166;2023-01-29T15:14:25;100677.03;;;5.82;59.06
34124;BME280;13153;52.316;21.166;2023-01-29T15:17:21;100680.63;;;5.84;59.12
34124;BME280;13153;52.316;21.166;2023-01-29T15:19:49;100675.53;;;5.87;59.16
34124;BME280;13153;52.316;21.166;2023-01-29T15:22:22;100675.72;;;5.90;59.07
34124;BME280;13153;52.316;21.166;2023-01-29T15:25:13;100670.25;;;5.86;59.38
34124;BME280;13153;52.316;21.166;2023-01-29T15:27:44;100672.94;;;5.87;59.17
34124;BME280;13153;52.316;21.166;2023-01-29T15:30:27;100664.53;;;5.93;59.42
34124;BME280;13153;52.316;21.166;2023-01-29T15:32:55;100660.06;;;5.90;59.00
34124;BME280;13153;52.316;21.166;2023-01-29T15:35:31;100659.31;;;5.75;58.95
34124;BME280;13153;52.316;21.166;2023-01-29T15:38:18;100659.41;;;5.78;59.14
34124;BME280;13153;52.316;21.166;2023-01-29T15:41:23;100656.81;;;5.78;59.30
34124;BME280;13153;52.316;21.166;2023-01-29T15:43:56;100656.28;;;5.85;59.47
34124;BME280;13153;52.316;21.166;2023-01-29T15:48:54;100663.16;;;5.83;59.35
34124;BME280;13153;52.316;21.166;2023-01-29T15:51:25;100662.59;;;5.89;59.03
34124;BME280;13153;52.316;21.166;2023-01-29T15:54:04;100658.09;;;5.86;59.09
34124;BME280;13153;52.316;21.166;2023-01-29T15:56:38;100655.31;;;5.83;59.10
34124;BME280;13153;52.316;21.166;2023-01-29T15:59:15;100646.81;;;5.87;59.15
34124;BME280;13153;52.316;21.166;2023-01-29T16:01:42;100646.19;;;5.91;59.05
34124;BME280;13153;52.316;21.166;2023-01-29T16:04:14;100649.44;;;5.87;59.14
34124;BME280;13153;52.316;21.166;2023-01-29T16:06:44;100654.84;;;5.90;58.94
34124;BME280;13153;52.316;21.166;2023-01-29T16:09:19;100649.44;;;5.87;59.33
34124;BME280;13153;52.316;21.166;2023-01-29T16:11:47;100650.31;;;5.88;59.18
34124;BME280;13153;52.316;21.166;2023-01-29T16:14:20;100647.16;;;5.93;59.03
34124;BME280;13153;52.316;21.166;2023-01-29T16:16:47;100655.00;;;5.93;58.87
34124;BME280;13153;52.316;21.166;2023-01-29T16:19:26;100657.09;;;6.01;58.77
34124;BME280;13153;52.316;21.166;2023-01-29T16:22:00;100661.03;;;5.92;58.80
34124;BME280;13153;52.316;21.166;2023-01-29T16:24:30;100664.47;;;5.91;59.01
34124;BME280;13153;52.316;21.166;2023-01-29T16:27:01;100664.69;;;5.96;59.19
34124;BME280;13153;52.316;21.166;2023-01-29T16:29:33;100661.03;;;5.92;59.06
34124;BME280;13153;52.316;21.166;2023-01-29T16:32:01;100662.41;;;5.86;59.15
34124;BME280;13153;52.316;21.166;2023-01-29T16:34:41;100661.66;;;5.88;59.25
34124;BME280;13153;52.316;21.166;2023-01-29T16:37:31;100662.16;;;5.97;59.66
34124;BME280;13153;52.316;21.166;2023-01-29T16:40:26;100671.78;;;5.99;58.92
34124;BME280;13153;52.316;21.166;2023-01-29T16:48:46;100674.16;;;5.94;59.67
34124;BME280;13153;52.316;21.166;2023-01-29T16:51:37;100671.31;;;5.89;59.59
34124;BME280;13153;52.316;21.166;2023-01-29T16:54:12;100667.41;;;5.81;60.28
34124;BME280;13153;52.316;21.166;2023-01-29T16:56:46;100667.63;;;5.86;60.67
34124;BME280;13153;52.316;21.166;2023-01-29T16:59:32;100662.59;;;5.89;60.63
34124;BME280;13153;52.316;21.166;2023-01-29T17:02:00;100661.50;;;5.85;60.48
34124;BME280;13153;52.316;21.166;2023-01-29T17:04:27;100658.16;;;5.88;60.50
34124;BME280;13153;52.316;21.166;2023-01-29T17:07:02;100652.31;;;5.92;60.71
34124;BME280;13153;52.316;21.166;2023-01-29T17:09:33;100651.41;;;5.91;60.21
34124;BME280;13153;52.316;21.166;2023-01-29T17:12:04;100646.94;;;5.89;61.04
34124;BME280;13153;52.316;21.166;2023-01-29T17:14:33;100644.53;;;5.93;60.86
34124;BME280;13153;52.316;21.166;2023-01-29T17:19:28;100624.31;;;5.89;61.03
34124;BME280;13153;52.316;21.166;2023-01-29T17:21:56;100631.25;;;5.89;61.10
34124;BME280;13153;52.316;21.166;2023-01-29T17:24:26;100619.88;;;5.88;60.68
34124;BME280;13153;52.316;21.166;2023-01-29T17:26:52;100627.50;;;5.84;60.99
34124;BME280;13153;52.316;21.166;2023-01-29T17:29:23;100614.84;;;5.91;61.47
34124;BME280;13153;52.316;21.166;2023-01-29T17:31:51;100619.31;;;5.94;61.11
34124;BME280;13153;52.316;21.166;2023-01-29T17:34:16;100624.69;;;5.97;60.84
34124;BME280;13153;52.316;21.166;2023-01-29T17:36:43;100612.47;;;5.96;61.16
34124;BME280;13153;52.316;21.166;2023-01-29T17:39:21;100609.78;;;5.94;61.15
34124;BME280;13153;52.316;21.166;2023-01-29T17:41:53;100605.44;;;5.95;60.96
34124;BME280;13153;52.316;21.166;2023-01-29T17:44:21;100595.22;;;6.00;61.08
34124;BME280;13153;52.316;21.166;2023-01-29T17:46:47;100592.91;;;6.06;60.70
34124;BME280;13153;52.316;21.166;2023-01-29T17:49:19;100584.25;;;6.07;60.70
34124;BME280;13153;52.316;21.166;2023-01-29T17:51:46;100578.13;;;6.06;60.39
34124;BME280;13153;52.316;21.166;2023-01-29T17:54:13;100581.72;;;6.08;60.56
34124;BME280;13153;52.316;21.166;2023-01-29T17:56:39;100568.66;;;6.08;60.27
34124;BME280;13153;52.316;21.166;2023-01-29T18:01:39;100563.22;;;6.04;60.55
34124;BME280;13153;52.316;21.166;2023-01-29T18:04:05;100551.19;;;6.07;60.19
34124;BME280;13153;52.316;21.166;2023-01-29T18:06:31;100551.13;;;6.06;60.28
34124;BME280;13153;52.316;21.166;2023-01-29T18:08:57;100538.88;;;6.05;59.92